Time;durP1;ratioP1;P1;durP2;ratioP2;P2;SDS_P1;SDS_P2;PMS_P1;PMS_P2;Temp;Humidity;BMP_temperature;BMP_pressure;BME280_temperature;BME280_humidity;BME280_pressure;Samples;Min_cycle;Max_cycle;Signal;HPM_P1;HPM_P2
2022/12/22 03:30:53;;;;;;;;;;;16.00;70.70;;;;;;10207703;28;94016;-65
2022/12/22 03:35:55;;;;;;;;;;;16.00;70.60;;;;;;10207536;28;94291;-65
2022/12/22 03:40:57;;;;;;;;;;;16.00;70.60;;;;;;10207650;28;92849;-66
2022/12/22 03:51:19;;;;;;;;;;;16.00;70.60;;;;;;10206472;28;94509;-64
2022/12/22 03:56:20;;;;;;;;;;;16.00;70.70;;;;;;10211487;28;95895;-65
2022/12/22 04:01:22;;;;;;;;;;;16.00;70.60;;;;;;10213887;28;93437;-65
2022/12/22 04:06:24;;;;;;;;;;;16.00;70.60;;;;;;10227990;28;93470;-64
2022/12/22 04:16:46;;;;;;;;;;;16.00;70.60;;;;;;10214115;28;93324;-65
2022/12/22 04:21:48;;;;;;;;;;;16.00;70.50;;;;;;10214026;28;93429;-65
2022/12/22 04:26:50;;;;;;;;;;;16.00;70.40;;;;;;10227909;28;92983;-65
2022/12/22 04:31:52;;;;;;;;;;;16.00;70.50;;;;;;10213580;28;93554;-64
2022/12/22 04:36:54;;;;;;;;;;;16.00;70.40;;;;;;10212894;28;92643;-65
2022/12/22 04:42:02;;;;;;;;;;;16.00;70.40;;;;;;10213181;28;93636;-65
2022/12/22 06:04:45;;;;;;;;;;;16.50;69.50;;;;;;10181077;28;93905;-64
2022/12/22 06:09:47;;;;;;;;;;;16.60;68.80;;;;;;10210351;28;94120;-64
2022/12/22 06:14:49;;;;;;;;;;;16.70;68.70;;;;;;10224103;28;93408;-65
2022/12/22 06:19:51;;;;;;;;;;;16.70;68.60;;;;;;10209886;28;94092;-64
2022/12/22 06:24:52;;;;;;;;;;;16.70;68.60;;;;;;10209923;28;93549;-64
2022/12/22 06:29:54;;;;;;;;;;;16.70;68.70;;;;;;10209464;28;92779;-64
2022/12/22 06:34:56;;;;;;;;;;;16.70;68.80;;;;;;10209714;28;93464;-64
2022/12/22 06:39:58;;;;;;;;;;;16.60;68.90;;;;;;10209483;28;93913;-65
2022/12/22 06:44:59;;;;;;;;;;;16.60;69.00;;;;;;10220435;28;96904;-65
2022/12/22 06:50:01;;;;;;;;;;;16.50;69.10;;;;;;10209118;28;93520;-64
2022/12/22 06:55:03;;;;;;;;;;;16.50;69.90;;;;;;10208701;28;94097;-64
2022/12/22 07:00:05;;;;;;;;;;;16.50;70.50;;;;;;10208048;28;94484;-66
2022/12/22 07:05:07;;;;;;;;;;;16.50;70.40;;;;;;10208556;28;93554;-66
2022/12/22 07:10:08;;;;;;;;;;;16.50;70.80;;;;;;10208550;28;93635;-67
2022/12/22 07:15:10;;;;;;;;;;;16.50;71.10;;;;;;10207284;28;92972;-66
2022/12/22 07:20:12;;;;;;;;;;;16.50;71.10;;;;;;10208920;28;92924;-67
2022/12/22 07:25:14;;;;;;;;;;;16.50;71.30;;;;;;10207471;28;93479;-66
2022/12/22 07:30:16;;;;;;;;;;;16.50;71.10;;;;;;10207348;28;94500;-66
2022/12/22 07:35:18;;;;;;;;;;;16.40;70.90;;;;;;10206050;28;98172;-67
2022/12/22 07:40:19;;;;;;;;;;;16.40;70.90;;;;;;10207401;28;93462;-67
2022/12/22 07:45:21;;;;;;;;;;;16.30;70.80;;;;;;10207655;28;93623;-67
2022/12/22 07:50:27;;;;;;;;;;;16.30;70.80;;;;;;10221493;28;93869;-66
2022/12/22 07:55:29;;;;;;;;;;;16.20;70.80;;;;;;10207264;28;94554;-66
2022/12/22 08:00:31;;;;;;;;;;;16.20;70.90;;;;;;10207460;28;94173;-67
2022/12/22 08:05:33;;;;;;;;;;;16.10;70.70;;;;;;10204144;28;94239;-67
2022/12/22 08:10:34;;;;;;;;;;;16.10;70.90;;;;;;10207026;28;91775;-67
2022/12/22 08:15:36;;;;;;;;;;;16.10;70.90;;;;;;10221725;28;93144;-67
2022/12/22 08:20:38;;;;;;;;;;;16.10;70.90;;;;;;10206493;28;93553;-66
2022/12/22 08:25:40;;;;;;;;;;;16.10;70.90;;;;;;10204419;28;95812;-67
2022/12/22 08:30:42;;;;;;;;;;;16.00;70.70;;;;;;10221175;28;94327;-67
2022/12/22 08:35:44;;;;;;;;;;;16.00;70.70;;;;;;10205892;28;92939;-67
2022/12/22 08:40:46;;;;;;;;;;;16.00;70.60;;;;;;10225647;28;94555;-67
2022/12/22 08:45:47;;;;;;;;;;;16.00;70.70;;;;;;10227442;28;94508;-67
2022/12/22 08:50:49;;;;;;;;;;;16.00;70.70;;;;;;10212619;28;93476;-67
2022/12/22 08:55:52;;;;;;;;;;;16.00;70.60;;;;;;10212611;28;93345;-67
2022/12/22 09:00:53;;;;;;;;;;;16.00;70.60;;;;;;10212555;28;93048;-67
2022/12/22 09:06:02;;;;;;;;;;;15.90;70.60;;;;;;10211840;28;93678;-67
2022/12/22 09:11:04;;;;;;;;;;;15.90;70.70;;;;;;10211717;28;93541;-66
2022/12/22 09:16:06;;;;;;;;;;;15.90;70.60;;;;;;10209097;28;96263;-66
2022/12/22 09:21:08;;;;;;;;;;;15.90;70.60;;;;;;10210903;28;94693;-66
2022/12/22 09:26:11;;;;;;;;;;;15.90;70.60;;;;;;10211639;28;93235;-66
2022/12/22 09:31:14;;;;;;;;;;;15.90;70.60;;;;;;10226441;28;93454;-67
2022/12/22 09:36:17;;;;;;;;;;;15.90;70.60;;;;;;10210095;28;93584;-67
2022/12/22 09:41:33;;;;;;;;;;;15.80;70.60;;;;;;10226056;28;94569;-66
2022/12/22 09:46:35;;;;;;;;;;;15.90;70.70;;;;;;10211093;28;94566;-66
2022/12/22 09:51:46;;;;;;;;;;;15.90;70.80;;;;;;10211515;28;92728;-66
2022/12/22 09:56:48;;;;;;;;;;;15.80;70.80;;;;;;10211050;28;94341;-66
2022/12/22 10:02:08;;;;;;;;;;;15.80;71.00;;;;;;10210468;28;94217;-67
2022/12/22 10:07:18;;;;;;;;;;;15.80;71.00;;;;;;10208577;28;97067;-66
2022/12/22 10:12:21;;;;;;;;;;;15.80;71.00;;;;;;10210330;28;93233;-66
2022/12/22 10:17:26;;;;;;;;;;;15.80;70.90;;;;;;10225592;28;93082;-67
2022/12/22 10:22:32;;;;;;;;;;;15.80;71.00;;;;;;10210090;28;94393;-66
2022/12/22 10:27:35;;;;;;;;;;;15.80;70.90;;;;;;10225319;28;94491;-66
2022/12/22 10:32:59;;;;;;;;;;;15.80;70.80;;;;;;10209468;28;94494;-66
2022/12/22 10:38:11;;;;;;;;;;;15.80;70.80;;;;;;10210012;28;93794;-66
2022/12/22 10:43:25;;;;;;;;;;;15.80;70.70;;;;;;10222848;28;93694;-67
2022/12/22 10:48:32;;;;;;;;;;;15.80;70.70;;;;;;10209366;28;94670;-67
2022/12/22 10:53:51;;;;;;;;;;;15.80;70.70;;;;;;10209545;28;93967;-66
2022/12/22 10:59:04;;;;;;;;;;;15.80;70.60;;;;;;10206886;28;96251;-66
2022/12/22 11:04:21;;;;;;;;;;;15.80;70.60;;;;;;10206658;28;93601;-66
2022/12/22 11:09:24;;;;;;;;;;;15.80;70.70;;;;;;10208092;28;94356;-66
2022/12/22 11:14:56;;;;;;;;;;;15.80;70.70;;;;;;10208440;28;92459;-66
2022/12/22 11:20:16;;;;;;;;;;;15.80;70.70;;;;;;10208504;28;93972;-67
2022/12/22 11:25:18;;;;;;;;;;;15.80;70.70;;;;;;10207256;28;94298;-66
2022/12/22 11:30:31;;;;;;;;;;;15.80;70.70;;;;;;10208643;28;94377;-66
2022/12/22 11:35:48;;;;;;;;;;;15.90;70.80;;;;;;10207632;28;92720;-66
2022/12/22 11:40:55;;;;;;;;;;;15.90;70.70;;;;;;10208266;28;92882;-66
2022/12/22 11:46:12;;;;;;;;;;;15.90;70.60;;;;;;10207802;28;93547;-66
2022/12/22 11:51:25;;;;;;;;;;;15.90;70.60;;;;;;10205255;28;96164;-66
2022/12/22 11:56:36;;;;;;;;;;;15.90;70.70;;;;;;10221716;28;93706;-66
2022/12/22 12:01:57;;;;;;;;;;;15.90;70.60;;;;;;10207306;28;93958;-66
2022/12/22 12:07:04;;;;;;;;;;;15.90;70.60;;;;;;10206685;28;93115;-67
2022/12/22 12:12:15;;;;;;;;;;;15.90;70.60;;;;;;10206990;28;94418;-66
2022/12/22 12:17:24;;;;;;;;;;;15.90;70.70;;;;;;10213487;28;92488;-66
2022/12/22 12:22:45;;;;;;;;;;;15.90;70.60;;;;;;10211454;28;94347;-66
2022/12/22 12:28:02;;;;;;;;;;;15.90;70.60;;;;;;10213205;28;93771;-66
2022/12/22 12:33:17;;;;;;;;;;;15.90;70.60;;;;;;10212861;28;93515;-67
2022/12/22 12:38:30;;;;;;;;;;;15.90;70.60;;;;;;10228074;28;94266;-66
2022/12/22 12:43:53;;;;;;;;;;;15.90;70.60;;;;;;10210715;28;97056;-66
2022/12/22 12:48:55;;;;;;;;;;;15.90;70.50;;;;;;10212963;28;94066;-66
2022/12/22 12:54:15;;;;;;;;;;;15.90;70.60;;;;;;10212140;28;92830;-67
2022/12/22 12:59:37;;;;;;;;;;;15.90;70.50;;;;;;10213001;28;94042;-66
2022/12/22 13:05:02;;;;;;;;;;;15.90;70.50;;;;;;10211082;28;93523;-67
2022/12/22 13:10:16;;;;;;;;;;;15.90;70.50;;;;;;10206555;28;93253;-67
2022/12/22 13:15:26;;;;;;;;;;;15.90;70.50;;;;;;10212093;28;93582;-67
2022/12/22 13:20:33;;;;;;;;;;;15.90;70.60;;;;;;10227553;28;93750;-67
2022/12/22 13:25:39;;;;;;;;;;;15.80;70.60;;;;;;10211062;28;93927;-66
2022/12/22 13:30:46;;;;;;;;;;;15.80;70.50;;;;;;10212728;28;96062;-66
2022/12/22 13:35:48;;;;;;;;;;;15.80;70.50;;;;;;10209792;28;98086;-67
2022/12/22 13:41:01;;;;;;;;;;;15.80;70.50;;;;;;10211294;28;94661;-66
2022/12/22 13:46:03;;;;;;;;;;;15.80;70.50;;;;;;10211627;28;94479;-67
2022/12/22 13:51:07;;;;;;;;;;;15.80;70.50;;;;;;10210465;28;94518;-66
2022/12/22 13:56:14;;;;;;;;;;;15.80;70.40;;;;;;10226052;28;93686;-67
2022/12/22 14:01:17;;;;;;;;;;;15.80;70.40;;;;;;10210723;28;93487;-66
2022/12/22 14:06:19;;;;;;;;;;;15.80;70.40;;;;;;10210032;28;93534;-66
2022/12/22 14:11:21;;;;;;;;;;;15.70;70.40;;;;;;10211123;28;92910;-66
2022/12/22 14:16:22;;;;;;;;;;;15.70;70.40;;;;;;10224359;28;93465;-67
2022/12/22 14:21:25;;;;;;;;;;;15.70;70.40;;;;;;10210182;28;93494;-67
2022/12/22 14:26:28;;;;;;;;;;;15.70;70.30;;;;;;10207627;28;96616;-66
2022/12/22 14:31:29;;;;;;;;;;;15.70;70.30;;;;;;10224503;28;94082;-66
2022/12/22 14:36:35;;;;;;;;;;;15.70;70.40;;;;;;10209497;28;95038;-67
2022/12/22 14:41:50;;;;;;;;;;;15.70;70.40;;;;;;10223400;28;94403;-66
2022/12/22 14:47:19;;;;;;;;;;;15.70;70.30;;;;;;10209243;28;94482;-67
2022/12/22 14:52:26;;;;;;;;;;;15.70;70.40;;;;;;10208834;28;94974;-66
2022/12/22 14:57:36;;;;;;;;;;;15.70;70.40;;;;;;10224111;28;94239;-66
2022/12/22 15:02:50;;;;;;;;;;;15.70;70.30;;;;;;10208308;28;92812;-66
2022/12/22 15:07:53;;;;;;;;;;;15.60;70.10;;;;;;10224134;28;93667;-66
2022/12/22 15:13:11;;;;;;;;;;;15.60;70.10;;;;;;10209505;28;92924;-65
2022/12/22 15:18:24;;;;;;;;;;;15.60;70.10;;;;;;10205578;28;116893;-66
2022/12/22 15:23:25;;;;;;;;;;;15.60;70.10;;;;;;10208941;28;94437;-66
2022/12/22 15:28:27;;;;;;;;;;;15.60;70.00;;;;;;10209885;28;93309;-67
2022/12/22 15:33:29;;;;;;;;;;;15.60;69.90;;;;;;10208275;28;93460;-67
2022/12/22 15:38:31;;;;;;;;;;;15.60;69.80;;;;;;10208096;28;93848;-66
2022/12/22 15:43:39;;;;;;;;;;;15.60;69.80;;;;;;10207654;28;93633;-66
2022/12/22 15:48:59;;;;;;;;;;;15.60;69.80;;;;;;10206631;28;94407;-67
2022/12/22 15:54:01;;;;;;;;;;;15.60;69.80;;;;;;10207778;28;92531;-66
2022/12/22 15:59:03;;;;;;;;;;;15.60;69.70;;;;;;10207016;28;93111;-66
2022/12/22 16:04:05;;;;;;;;;;;15.60;69.60;;;;;;10206648;28;92638;-66
2022/12/22 16:09:19;;;;;;;;;;;15.60;69.60;;;;;;10204519;28;95471;-66
2022/12/22 16:14:21;;;;;;;;;;;15.60;69.60;;;;;;10206857;28;95090;-65
2022/12/22 16:19:23;;;;;;;;;;;15.60;69.80;;;;;;10204971;28;94470;-67
2022/12/22 16:24:25;;;;;;;;;;;15.70;70.00;;;;;;10206128;28;93481;-66
2022/12/22 16:29:27;;;;;;;;;;;15.90;69.90;;;;;;10206304;28;97431;-66
2022/12/22 16:34:28;;;;;;;;;;;16.20;69.60;;;;;;10205143;28;94346;-66
2022/12/22 16:39:30;;;;;;;;;;;16.40;69.10;;;;;;10205121;28;92978;-66
2022/12/22 16:44:32;;;;;;;;;;;16.70;68.70;;;;;;10206447;28;92658;-67
2022/12/22 16:49:33;;;;;;;;;;;16.90;68.40;;;;;;10205195;28;94687;-67
2022/12/22 16:54:35;;;;;;;;;;;17.00;68.00;;;;;;10205404;28;94136;-67
2022/12/22 16:59:37;;;;;;;;;;;17.10;67.90;;;;;;10203107;28;98016;-63
2022/12/22 17:04:39;;;;;;;;;;;17.20;68.80;;;;;;10210950;28;93796;-64
2022/12/22 17:09:43;;;;;;;;;;;17.20;69.60;;;;;;10211107;28;93954;-63
2022/12/22 17:14:45;;;;;;;;;;;17.20;70.30;;;;;;10210904;28;94564;-65
2022/12/22 17:19:47;;;;;;;;;;;17.30;71.80;;;;;;10206791;28;93817;-62
2022/12/22 17:24:50;;;;;;;;;;;17.40;73.50;;;;;;10220109;28;93373;-63
2022/12/22 17:29:52;;;;;;;;;;;17.50;74.80;;;;;;10204514;28;94407;-63
2022/12/22 17:34:54;;;;;;;;;;;17.60;74.40;;;;;;10204962;28;91870;-62
2022/12/22 17:39:59;;;;;;;;;;;17.70;73.20;;;;;;10204445;28;93129;-62
2022/12/22 17:45:01;;;;;;;;;;;17.70;72.50;;;;;;10210332;28;92758;-62
2022/12/22 17:50:02;;;;;;;;;;;17.70;72.00;;;;;;10207822;28;96786;-62
2022/12/22 17:55:04;;;;;;;;;;;17.70;71.80;;;;;;10208527;28;93397;-64
2022/12/22 18:00:14;;;;;;;;;;;17.60;71.40;;;;;;10210435;28;94078;-65
2022/12/22 18:05:20;;;;;;;;;;;17.70;71.20;;;;;;10207965;28;93506;-63
2022/12/22 18:10:22;;;;;;;;;;;17.80;70.90;;;;;;10209299;28;94551;-64
2022/12/22 18:15:25;;;;;;;;;;;17.80;70.50;;;;;;10208416;28;94654;-64
2022/12/22 18:20:27;;;;;;;;;;;17.90;70.40;;;;;;10208485;28;92543;-65
2022/12/22 18:25:30;;;;;;;;;;;17.80;70.30;;;;;;10209051;28;93427;-63
2022/12/22 18:30:32;;;;;;;;;;;17.80;70.40;;;;;;10208762;28;93493;-64
2022/12/22 18:35:34;;;;;;;;;;;17.80;70.30;;;;;;10208091;28;94295;-63
2022/12/22 18:40:37;;;;;;;;;;;17.90;70.30;;;;;;10206873;28;98003;-64
2022/12/22 18:45:39;;;;;;;;;;;18.00;70.00;;;;;;10208727;28;94438;-65
2022/12/22 18:50:41;;;;;;;;;;;18.00;70.00;;;;;;10208488;28;93859;-63
2022/12/22 18:55:44;;;;;;;;;;;18.00;69.70;;;;;;10208405;28;94650;-63
2022/12/22 19:00:46;;;;;;;;;;;17.90;69.90;;;;;;10207514;28;92523;-64
2022/12/22 19:05:48;;;;;;;;;;;17.90;69.70;;;;;;10206946;28;93766;-63
2022/12/22 19:10:54;;;;;;;;;;;17.80;69.70;;;;;;10207784;28;93452;-64
2022/12/22 19:15:57;;;;;;;;;;;17.90;69.70;;;;;;10207887;28;91824;-64
2022/12/22 19:20:58;;;;;;;;;;;18.00;69.50;;;;;;10206784;28;94492;-65
2022/12/22 19:26:01;;;;;;;;;;;18.00;69.20;;;;;;10206485;28;93605;-67
2022/12/22 19:31:17;;;;;;;;;;;18.00;69.00;;;;;;10204773;28;96893;-64
2022/12/22 19:36:24;;;;;;;;;;;18.00;69.00;;;;;;10206627;28;93691;-64
2022/12/22 19:41:28;;;;;;;;;;;17.90;69.00;;;;;;10207009;28;93960;-64
2022/12/22 19:46:33;;;;;;;;;;;17.90;69.30;;;;;;10207302;28;93641;-63
2022/12/22 19:51:35;;;;;;;;;;;17.80;69.70;;;;;;10205882;28;94005;-63
2022/12/22 19:56:36;;;;;;;;;;;17.80;70.30;;;;;;10205904;28;94417;-63
2022/12/22 20:01:38;;;;;;;;;;;17.70;70.40;;;;;;10205426;28;94415;-64
2022/12/22 20:06:40;;;;;;;;;;;17.60;70.40;;;;;;10206689;28;92806;-65
2022/12/22 20:11:42;;;;;;;;;;;17.60;70.30;;;;;;10206225;28;96069;-64
2022/12/22 20:16:44;;;;;;;;;;;17.50;70.40;;;;;;10206202;28;94619;-65
2022/12/22 20:21:46;;;;;;;;;;;17.40;70.40;;;;;;10204234;28;97071;-65
2022/12/22 20:26:48;;;;;;;;;;;17.40;71.30;;;;;;10205037;28;93700;-64
2022/12/22 20:31:55;;;;;;;;;;;17.40;71.10;;;;;;10204684;28;94579;-65
2022/12/22 20:36:58;;;;;;;;;;;17.30;71.00;;;;;;10210208;28;93820;-64
2022/12/22 20:42:00;;;;;;;;;;;17.30;71.00;;;;;;10213096;28;93528;-64
2022/12/22 20:47:02;;;;;;;;;;;17.20;71.00;;;;;;10211562;28;93158;-65
2022/12/22 20:52:04;;;;;;;;;;;17.10;71.00;;;;;;10211654;28;94544;-64
2022/12/22 20:57:10;;;;;;;;;;;17.10;71.10;;;;;;10212116;28;93745;-64
2022/12/22 21:02:29;;;;;;;;;;;17.00;71.00;;;;;;10207256;28;94490;-64
2022/12/22 21:07:31;;;;;;;;;;;17.00;71.10;;;;;;10210066;28;93532;-65
2022/12/22 21:12:33;;;;;;;;;;;17.00;71.30;;;;;;10207942;28;96279;-65
2022/12/22 21:17:35;;;;;;;;;;;16.90;71.30;;;;;;10211431;28;93746;-65
2022/12/22 21:22:37;;;;;;;;;;;16.90;71.40;;;;;;10210716;28;96200;-65
2022/12/22 21:27:40;;;;;;;;;;;16.90;71.50;;;;;;10210381;28;93562;-65
2022/12/22 21:32:41;;;;;;;;;;;16.80;71.50;;;;;;10211123;28;93157;-64
2022/12/22 21:37:44;;;;;;;;;;;16.80;71.60;;;;;;10207873;28;93687;-66
2022/12/22 21:42:46;;;;;;;;;;;16.80;71.60;;;;;;10209845;28;92994;-65
2022/12/22 21:47:48;;;;;;;;;;;16.70;72.60;;;;;;10209883;28;94038;-65
2022/12/22 21:52:51;;;;;;;;;;;16.70;71.70;;;;;;10210570;28;93290;-66
2022/12/22 21:57:53;;;;;;;;;;;16.70;71.70;;;;;;10206771;28;93805;-64
2022/12/22 22:02:54;;;;;;;;;;;16.60;71.60;;;;;;10207323;28;96502;-64
2022/12/22 22:07:57;;;;;;;;;;;16.60;71.60;;;;;;10209725;28;94379;-65
2022/12/22 22:12:59;;;;;;;;;;;16.60;71.60;;;;;;10209632;28;93511;-64
2022/12/22 22:18:01;;;;;;;;;;;16.60;71.50;;;;;;10210131;28;93531;-65
2022/12/22 22:23:09;;;;;;;;;;;16.50;71.50;;;;;;10209900;28;93470;-64
2022/12/22 22:28:11;;;;;;;;;;;16.50;71.40;;;;;;10208450;28;93229;-64
2022/12/22 22:33:13;;;;;;;;;;;16.50;71.40;;;;;;10208913;28;93963;-63
2022/12/22 22:38:15;;;;;;;;;;;16.40;71.30;;;;;;10208119;28;92728;-63
2022/12/22 22:43:17;;;;;;;;;;;16.40;71.40;;;;;;10209440;28;94607;-65
2022/12/22 22:48:20;;;;;;;;;;;16.40;71.40;;;;;;10208861;28;93471;-64
2022/12/22 22:53:22;;;;;;;;;;;16.40;71.40;;;;;;10206085;28;96905;-65
2022/12/22 22:58:23;;;;;;;;;;;16.30;71.30;;;;;;10223333;28;94179;-63
2022/12/22 23:03:25;;;;;;;;;;;16.30;71.30;;;;;;10207462;28;93331;-63
2022/12/22 23:08:28;;;;;;;;;;;16.30;71.40;;;;;;10208940;28;93806;-63
2022/12/22 23:13:30;;;;;;;;;;;16.30;71.30;;;;;;10208411;28;94514;-63
2022/12/22 23:18:32;;;;;;;;;;;16.20;71.30;;;;;;10207591;28;93810;-65
2022/12/22 23:23:34;;;;;;;;;;;16.20;71.30;;;;;;10207588;28;94536;-64
2022/12/22 23:28:36;;;;;;;;;;;16.20;71.30;;;;;;10209770;28;93802;-64
2022/12/22 23:33:38;;;;;;;;;;;16.20;71.30;;;;;;10223614;28;94554;-64
2022/12/22 23:38:40;;;;;;;;;;;16.20;71.30;;;;;;10222733;28;94322;-63
2022/12/22 23:43:42;;;;;;;;;;;16.20;71.20;;;;;;10204760;28;96787;-63
2022/12/22 23:48:48;;;;;;;;;;;16.20;71.20;;;;;;10221847;28;92677;-63
2022/12/22 23:53:50;;;;;;;;;;;16.20;71.10;;;;;;10207919;28;95628;-64
2022/12/22 23:58:52;;;;;;;;;;;16.20;71.10;;;;;;10207551;28;93502;-64
